sensor_id;sensor_type;location;lat;lon;timestamp;P1;durP1;ratioP1;P2;durP2;ratioP2
41986;SDS011;28361;50.740;7.084;2022-08-14T00:00:59;2.00;;;1.85;;
41986;SDS011;28361;50.740;7.084;2022-08-14T00:03:27;2.30;;;2.10;;
41986;SDS011;28361;50.740;7.084;2022-08-14T00:05:54;3.40;;;2.15;;
41986;SDS011;28361;50.740;7.084;2022-08-14T00:08:21;2.83;;;2.00;;
41986;SDS011;28361;50.740;7.084;2022-08-14T00:10:47;2.78;;;2.30;;
41986;SDS011;28361;50.740;7.084;2022-08-14T00:13:14;3.30;;;2.60;;
41986;SDS011;28361;50.740;7.084;2022-08-14T00:15:42;3.60;;;2.47;;
41986;SDS011;28361;50.740;7.084;2022-08-14T00:18:09;2.70;;;2.13;;
41986;SDS011;28361;50.740;7.084;2022-08-14T00:20:36;2.80;;;2.50;;
41986;SDS011;28361;50.740;7.084;2022-08-14T00:23:03;3.28;;;2.42;;
41986;SDS011;28361;50.740;7.084;2022-08-14T00:25:30;2.90;;;2.42;;
41986;SDS011;28361;50.740;7.084;2022-08-14T00:27:56;3.47;;;2.72;;
41986;SDS011;28361;50.740;7.084;2022-08-14T00:30:22;3.97;;;2.28;;
41986;SDS011;28361;50.740;7.084;2022-08-14T00:32:49;3.80;;;2.53;;
41986;SDS011;28361;50.740;7.084;2022-08-14T00:35:15;5.63;;;3.03;;
41986;SDS011;28361;50.740;7.084;2022-08-14T00:37:42;3.00;;;2.70;;
41986;SDS011;28361;50.740;7.084;2022-08-14T00:40:10;2.60;;;2.40;;
41986;SDS011;28361;50.740;7.084;2022-08-14T00:42:36;6.47;;;4.45;;
41986;SDS011;28361;50.740;7.084;2022-08-14T00:45:03;5.07;;;3.67;;
41986;SDS011;28361;50.740;7.084;2022-08-14T00:47:29;3.65;;;2.80;;
41986;SDS011;28361;50.740;7.084;2022-08-14T00:49:56;3.63;;;2.47;;
41986;SDS011;28361;50.740;7.084;2022-08-14T00:52:22;2.78;;;2.42;;
41986;SDS011;28361;50.740;7.084;2022-08-14T00:54:50;4.35;;;2.90;;
41986;SDS011;28361;50.740;7.084;2022-08-14T00:57:21;2.67;;;2.45;;
41986;SDS011;28361;50.740;7.084;2022-08-14T00:59:49;3.47;;;2.60;;
41986;SDS011;28361;50.740;7.084;2022-08-14T01:02:15;4.07;;;2.88;;
41986;SDS011;28361;50.740;7.084;2022-08-14T01:04:42;4.32;;;2.70;;
41986;SDS011;28361;50.740;7.084;2022-08-14T01:07:09;5.60;;;4.50;;
41986;SDS011;28361;50.740;7.084;2022-08-14T01:09:35;5.72;;;2.90;;
41986;SDS011;28361;50.740;7.084;2022-08-14T01:12:02;3.08;;;2.70;;
41986;SDS011;28361;50.740;7.084;2022-08-14T01:14:28;4.25;;;3.33;;
41986;SDS011;28361;50.740;7.084;2022-08-14T01:16:54;4.63;;;3.13;;
41986;SDS011;28361;50.740;7.084;2022-08-14T01:19:21;4.82;;;3.20;;
41986;SDS011;28361;50.740;7.084;2022-08-14T01:22:06;3.85;;;2.88;;
41986;SDS011;28361;50.740;7.084;2022-08-14T01:24:32;3.85;;;3.08;;
41986;SDS011;28361;50.740;7.084;2022-08-14T01:27:00;6.32;;;3.28;;
41986;SDS011;28361;50.740;7.084;2022-08-14T01:29:29;5.13;;;4.22;;
41986;SDS011;28361;50.740;7.084;2022-08-14T01:32:02;4.10;;;3.40;;
41986;SDS011;28361;50.740;7.084;2022-08-14T01:34:29;4.50;;;3.00;;
41986;SDS011;28361;50.740;7.084;2022-08-14T01:36:57;6.07;;;3.53;;
41986;SDS011;28361;50.740;7.084;2022-08-14T01:39:23;5.80;;;3.33;;
41986;SDS011;28361;50.740;7.084;2022-08-14T01:41:50;5.63;;;3.38;;
41986;SDS011;28361;50.740;7.084;2022-08-14T01:44:25;3.78;;;3.28;;
41986;SDS011;28361;50.740;7.084;2022-08-14T01:46:58;3.60;;;2.90;;
41986;SDS011;28361;50.740;7.084;2022-08-14T01:49:25;4.45;;;3.30;;
41986;SDS011;28361;50.740;7.084;2022-08-14T01:51:52;5.53;;;3.72;;
41986;SDS011;28361;50.740;7.084;2022-08-14T01:54:21;6.70;;;4.95;;
41986;SDS011;28361;50.740;7.084;2022-08-14T01:56:49;4.82;;;3.50;;
41986;SDS011;28361;50.740;7.084;2022-08-14T02:01:43;4.65;;;3.53;;
41986;SDS011;28361;50.740;7.084;2022-08-14T02:04:10;5.40;;;3.67;;
41986;SDS011;28361;50.740;7.084;2022-08-14T02:06:36;3.80;;;3.30;;
41986;SDS011;28361;50.740;7.084;2022-08-14T02:09:05;3.83;;;3.40;;
41986;SDS011;28361;50.740;7.084;2022-08-14T02:11:31;4.22;;;3.72;;
41986;SDS011;28361;50.740;7.084;2022-08-14T02:13:59;5.28;;;3.63;;
41986;SDS011;28361;50.740;7.084;2022-08-14T02:16:27;4.18;;;3.35;;
41986;SDS011;28361;50.740;7.084;2022-08-14T02:18:57;4.10;;;3.70;;
41986;SDS011;28361;50.740;7.084;2022-08-14T02:21:25;4.85;;;3.60;;
41986;SDS011;28361;50.740;7.084;2022-08-14T02:23:52;4.30;;;3.28;;
41986;SDS011;28361;50.740;7.084;2022-08-14T02:26:20;3.50;;;2.92;;
41986;SDS011;28361;50.740;7.084;2022-08-14T02:28:47;4.65;;;2.95;;
41986;SDS011;28361;50.740;7.084;2022-08-14T02:31:14;3.30;;;3.00;;
41986;SDS011;28361;50.740;7.084;2022-08-14T02:33:40;3.28;;;2.83;;
41986;SDS011;28361;50.740;7.084;2022-08-14T02:36:07;3.92;;;2.67;;
41986;SDS011;28361;50.740;7.084;2022-08-14T02:38:34;5.88;;;3.20;;
41986;SDS011;28361;50.740;7.084;2022-08-14T02:41:00;4.53;;;3.13;;
41986;SDS011;28361;50.740;7.084;2022-08-14T02:43:26;3.60;;;2.72;;
41986;SDS011;28361;50.740;7.084;2022-08-14T02:45:56;3.05;;;2.50;;
41986;SDS011;28361;50.740;7.084;2022-08-14T02:48:22;4.53;;;3.22;;
41986;SDS011;28361;50.740;7.084;2022-08-14T02:51:04;3.05;;;2.67;;
41986;SDS011;28361;50.740;7.084;2022-08-14T02:53:31;3.38;;;3.00;;
41986;SDS011;28361;50.740;7.084;2022-08-14T02:55:58;4.68;;;3.25;;
41986;SDS011;28361;50.740;7.084;2022-08-14T02:58:24;4.70;;;3.22;;
41986;SDS011;28361;50.740;7.084;2022-08-14T03:00:51;3.40;;;3.00;;
41986;SDS011;28361;50.740;7.084;2022-08-14T03:03:18;3.72;;;2.95;;
41986;SDS011;28361;50.740;7.084;2022-08-14T03:05:48;3.67;;;2.85;;
41986;SDS011;28361;50.740;7.084;2022-08-14T03:08:15;4.10;;;3.05;;
41986;SDS011;28361;50.740;7.084;2022-08-14T03:10:42;3.80;;;3.08;;
41986;SDS011;28361;50.740;7.084;2022-08-14T03:13:08;7.97;;;3.38;;
41986;SDS011;28361;50.740;7.084;2022-08-14T03:15:34;6.13;;;3.08;;
41986;SDS011;28361;50.740;7.084;2022-08-14T03:18:09;4.55;;;3.20;;
41986;SDS011;28361;50.740;7.084;2022-08-14T03:20:35;7.85;;;3.17;;
41986;SDS011;28361;50.740;7.084;2022-08-14T03:23:01;3.70;;;3.20;;
41986;SDS011;28361;50.740;7.084;2022-08-14T03:25:27;4.82;;;3.13;;
41986;SDS011;28361;50.740;7.084;2022-08-14T03:28:02;5.45;;;3.08;;
41986;SDS011;28361;50.740;7.084;2022-08-14T03:30:29;4.72;;;3.10;;
41986;SDS011;28361;50.740;7.084;2022-08-14T03:32:55;3.97;;;2.75;;
41986;SDS011;28361;50.740;7.084;2022-08-14T03:35:22;6.35;;;3.03;;
41986;SDS011;28361;50.740;7.084;2022-08-14T03:37:48;4.88;;;3.53;;
41986;SDS011;28361;50.740;7.084;2022-08-14T03:40:17;5.80;;;3.28;;
41986;SDS011;28361;50.740;7.084;2022-08-14T03:42:43;4.70;;;3.17;;
41986;SDS011;28361;50.740;7.084;2022-08-14T03:45:09;6.20;;;3.38;;
41986;SDS011;28361;50.740;7.084;2022-08-14T03:47:36;4.22;;;2.88;;
41986;SDS011;28361;50.740;7.084;2022-08-14T03:50:06;4.68;;;3.22;;
41986;SDS011;28361;50.740;7.084;2022-08-14T03:52:33;6.80;;;3.67;;
41986;SDS011;28361;50.740;7.084;2022-08-14T03:55:00;15.23;;;10.30;;
41986;SDS011;28361;50.740;7.084;2022-08-14T03:57:27;7.00;;;4.35;;
41986;SDS011;28361;50.740;7.084;2022-08-14T03:59:56;4.65;;;3.38;;
41986;SDS011;28361;50.740;7.084;2022-08-14T04:02:23;3.80;;;3.17;;
41986;SDS011;28361;50.740;7.084;2022-08-14T04:04:49;3.60;;;3.20;;
41986;SDS011;28361;50.740;7.084;2022-08-14T04:07:17;4.25;;;3.30;;
41986;SDS011;28361;50.740;7.084;2022-08-14T04:09:43;4.40;;;3.55;;
41986;SDS011;28361;50.740;7.084;2022-08-14T04:12:09;4.32;;;3.38;;
41986;SDS011;28361;50.740;7.084;2022-08-14T04:14:36;4.20;;;2.97;;
41986;SDS011;28361;50.740;7.084;2022-08-14T04:17:02;5.60;;;3.38;;
41986;SDS011;28361;50.740;7.084;2022-08-14T04:19:28;5.53;;;3.88;;
41986;SDS011;28361;50.740;7.084;2022-08-14T04:21:55;4.00;;;3.15;;
41986;SDS011;28361;50.740;7.084;2022-08-14T04:24:21;4.35;;;3.53;;
41986;SDS011;28361;50.740;7.084;2022-08-14T04:26:47;3.70;;;2.92;;
41986;SDS011;28361;50.740;7.084;2022-08-14T04:29:13;4.50;;;3.22;;
41986;SDS011;28361;50.740;7.084;2022-08-14T04:31:39;4.25;;;2.88;;
41986;SDS011;28361;50.740;7.084;2022-08-14T04:34:06;6.93;;;2.88;;
41986;SDS011;28361;50.740;7.084;2022-08-14T04:36:33;3.53;;;2.97;;
41986;SDS011;28361;50.740;7.084;2022-08-14T04:39:19;3.92;;;3.10;;
41986;SDS011;28361;50.740;7.084;2022-08-14T04:42:03;3.70;;;3.08;;
41986;SDS011;28361;50.740;7.084;2022-08-14T04:44:48;4.13;;;3.53;;
41986;SDS011;28361;50.740;7.084;2022-08-14T04:47:14;3.83;;;2.85;;
41986;SDS011;28361;50.740;7.084;2022-08-14T04:50:00;3.47;;;3.17;;
41986;SDS011;28361;50.740;7.084;2022-08-14T04:52:27;6.07;;;2.95;;
41986;SDS011;28361;50.740;7.084;2022-08-14T04:54:54;8.35;;;3.97;;
41986;SDS011;28361;50.740;7.084;2022-08-14T04:57:20;4.57;;;3.30;;
41986;SDS011;28361;50.740;7.084;2022-08-14T04:59:46;5.13;;;3.70;;
41986;SDS011;28361;50.740;7.084;2022-08-14T05:02:12;3.63;;;2.83;;
41986;SDS011;28361;50.740;7.084;2022-08-14T05:04:40;4.40;;;3.53;;
41986;SDS011;28361;50.740;7.084;2022-08-14T05:07:06;5.63;;;3.20;;
41986;SDS011;28361;50.740;7.084;2022-08-14T05:09:32;4.63;;;3.38;;
41986;SDS011;28361;50.740;7.084;2022-08-14T05:11:58;4.90;;;3.40;;
41986;SDS011;28361;50.740;7.084;2022-08-14T05:14:24;6.70;;;3.08;;
41986;SDS011;28361;50.740;7.084;2022-08-14T05:16:52;3.95;;;3.20;;
41986;SDS011;28361;50.740;7.084;2022-08-14T05:19:22;4.90;;;3.45;;
41986;SDS011;28361;50.740;7.084;2022-08-14T05:21:51;4.57;;;3.38;;
41986;SDS011;28361;50.740;7.084;2022-08-14T05:24:23;4.03;;;3.40;;
41986;SDS011;28361;50.740;7.084;2022-08-14T05:26:49;4.07;;;3.67;;
41986;SDS011;28361;50.740;7.084;2022-08-14T05:29:16;4.25;;;3.17;;
41986;SDS011;28361;50.740;7.084;2022-08-14T05:31:42;4.32;;;3.70;;
41986;SDS011;28361;50.740;7.084;2022-08-14T05:34:08;4.82;;;3.38;;
41986;SDS011;28361;50.740;7.084;2022-08-14T05:36:35;4.18;;;3.58;;
41986;SDS011;28361;50.740;7.084;2022-08-14T05:39:01;4.03;;;3.60;;
41986;SDS011;28361;50.740;7.084;2022-08-14T05:41:27;5.13;;;3.60;;
41986;SDS011;28361;50.740;7.084;2022-08-14T05:43:53;5.07;;;3.30;;
41986;SDS011;28361;50.740;7.084;2022-08-14T05:46:20;4.78;;;3.45;;
41986;SDS011;28361;50.740;7.084;2022-08-14T05:48:50;5.38;;;3.20;;
41986;SDS011;28361;50.740;7.084;2022-08-14T05:51:17;4.50;;;3.28;;
41986;SDS011;28361;50.740;7.084;2022-08-14T05:53:44;4.63;;;3.70;;
41986;SDS011;28361;50.740;7.084;2022-08-14T05:56:10;5.25;;;3.35;;
41986;SDS011;28361;50.740;7.084;2022-08-14T05:58:37;3.75;;;3.17;;
41986;SDS011;28361;50.740;7.084;2022-08-14T06:01:03;5.10;;;3.58;;
41986;SDS011;28361;50.740;7.084;2022-08-14T06:03:29;3.53;;;3.22;;
41986;SDS011;28361;50.740;7.084;2022-08-14T06:05:55;3.85;;;3.38;;
41986;SDS011;28361;50.740;7.084;2022-08-14T06:08:26;3.92;;;3.20;;
41986;SDS011;28361;50.740;7.084;2022-08-14T06:10:54;6.80;;;3.75;;
41986;SDS011;28361;50.740;7.084;2022-08-14T06:13:20;4.25;;;3.67;;
41986;SDS011;28361;50.740;7.084;2022-08-14T06:15:47;5.15;;;3.95;;
41986;SDS011;28361;50.740;7.084;2022-08-14T06:18:15;7.97;;;4.07;;
41986;SDS011;28361;50.740;7.084;2022-08-14T06:20:41;6.57;;;4.03;;
41986;SDS011;28361;50.740;7.084;2022-08-14T06:23:08;5.15;;;3.78;;
41986;SDS011;28361;50.740;7.084;2022-08-14T06:25:34;4.55;;;3.83;;
41986;SDS011;28361;50.740;7.084;2022-08-14T06:28:00;5.25;;;3.65;;
41986;SDS011;28361;50.740;7.084;2022-08-14T06:30:29;4.18;;;3.67;;
41986;SDS011;28361;50.740;7.084;2022-08-14T06:32:56;4.05;;;3.65;;
41986;SDS011;28361;50.740;7.084;2022-08-14T06:35:22;5.18;;;4.07;;
41986;SDS011;28361;50.740;7.084;2022-08-14T06:37:50;4.78;;;3.88;;
41986;SDS011;28361;50.740;7.084;2022-08-14T06:40:17;5.70;;;4.20;;
41986;SDS011;28361;50.740;7.084;2022-08-14T06:42:44;6.80;;;4.47;;
41986;SDS011;28361;50.740;7.084;2022-08-14T06:45:10;5.20;;;4.10;;
41986;SDS011;28361;50.740;7.084;2022-08-14T06:47:37;4.93;;;3.92;;
41986;SDS011;28361;50.740;7.084;2022-08-14T06:50:05;5.05;;;4.05;;
41986;SDS011;28361;50.740;7.084;2022-08-14T06:52:31;5.43;;;3.83;;
41986;SDS011;28361;50.740;7.084;2022-08-14T06:54:57;5.75;;;4.20;;
41986;SDS011;28361;50.740;7.084;2022-08-14T06:57:23;5.20;;;4.22;;
41986;SDS011;28361;50.740;7.084;2022-08-14T06:59:50;4.85;;;3.97;;
41986;SDS011;28361;50.740;7.084;2022-08-14T07:02:16;4.78;;;3.95;;
41986;SDS011;28361;50.740;7.084;2022-08-14T07:05:01;5.90;;;4.25;;
41986;SDS011;28361;50.740;7.084;2022-08-14T07:07:46;7.07;;;4.22;;
41986;SDS011;28361;50.740;7.084;2022-08-14T07:10:12;4.50;;;3.88;;
41986;SDS011;28361;50.740;7.084;2022-08-14T07:12:38;4.35;;;3.95;;
41986;SDS011;28361;50.740;7.084;2022-08-14T07:15:05;5.80;;;3.72;;
41986;SDS011;28361;50.740;7.084;2022-08-14T07:17:31;5.20;;;3.95;;
41986;SDS011;28361;50.740;7.084;2022-08-14T07:19:57;6.20;;;4.00;;
41986;SDS011;28361;50.740;7.084;2022-08-14T07:22:23;4.93;;;3.97;;
41986;SDS011;28361;50.740;7.084;2022-08-14T07:24:49;4.65;;;3.97;;
41986;SDS011;28361;50.740;7.084;2022-08-14T07:27:15;4.85;;;3.95;;
41986;SDS011;28361;50.740;7.084;2022-08-14T07:29:42;3.95;;;3.53;;
41986;SDS011;28361;50.740;7.084;2022-08-14T07:32:08;6.97;;;4.10;;
41986;SDS011;28361;50.740;7.084;2022-08-14T07:34:35;4.30;;;3.90;;
41986;SDS011;28361;50.740;7.084;2022-08-14T07:37:01;3.92;;;3.53;;
41986;SDS011;28361;50.740;7.084;2022-08-14T07:39:27;4.13;;;3.72;;
41986;SDS011;28361;50.740;7.084;2022-08-14T07:41:53;4.90;;;3.80;;
41986;SDS011;28361;50.740;7.084;2022-08-14T07:44:20;3.95;;;3.55;;
41986;SDS011;28361;50.740;7.084;2022-08-14T07:46:46;5.82;;;4.25;;
41986;SDS011;28361;50.740;7.084;2022-08-14T07:49:12;4.10;;;3.58;;
41986;SDS011;28361;50.740;7.084;2022-08-14T07:51:38;4.85;;;4.28;;
41986;SDS011;28361;50.740;7.084;2022-08-14T07:54:05;5.95;;;4.38;;
41986;SDS011;28361;50.740;7.084;2022-08-14T07:56:31;5.45;;;4.05;;
41986;SDS011;28361;50.740;7.084;2022-08-14T07:58:57;5.00;;;3.90;;
41986;SDS011;28361;50.740;7.084;2022-08-14T08:01:23;3.97;;;3.58;;
41986;SDS011;28361;50.740;7.084;2022-08-14T08:03:50;7.43;;;4.18;;
41986;SDS011;28361;50.740;7.084;2022-08-14T08:06:16;5.53;;;3.72;;
41986;SDS011;28361;50.740;7.084;2022-08-14T08:08:42;5.80;;;4.18;;
41986;SDS011;28361;50.740;7.084;2022-08-14T08:11:11;3.60;;;3.30;;
41986;SDS011;28361;50.740;7.084;2022-08-14T08:13:39;4.38;;;3.97;;
41986;SDS011;28361;50.740;7.084;2022-08-14T08:16:06;6.38;;;4.00;;
41986;SDS011;28361;50.740;7.084;2022-08-14T08:18:32;4.28;;;3.75;;
41986;SDS011;28361;50.740;7.084;2022-08-14T08:20:59;5.00;;;3.92;;
41986;SDS011;28361;50.740;7.084;2022-08-14T08:23:25;4.45;;;3.97;;
41986;SDS011;28361;50.740;7.084;2022-08-14T08:25:53;7.28;;;4.22;;
41986;SDS011;28361;50.740;7.084;2022-08-14T08:28:20;4.47;;;4.07;;
41986;SDS011;28361;50.740;7.084;2022-08-14T08:30:51;5.95;;;4.22;;
41986;SDS011;28361;50.740;7.084;2022-08-14T08:33:21;5.05;;;4.15;;
41986;SDS011;28361;50.740;7.084;2022-08-14T08:35:49;7.47;;;4.10;;
41986;SDS011;28361;50.740;7.084;2022-08-14T08:38:15;4.30;;;3.90;;
41986;SDS011;28361;50.740;7.084;2022-08-14T08:40:44;6.15;;;3.92;;
41986;SDS011;28361;50.740;7.084;2022-08-14T08:45:42;4.85;;;4.10;;
41986;SDS011;28361;50.740;7.084;2022-08-14T08:48:07;5.13;;;3.97;;
41986;SDS011;28361;50.740;7.084;2022-08-14T08:50:34;5.18;;;4.07;;
41986;SDS011;28361;50.740;7.084;2022-08-14T08:53:08;4.82;;;3.85;;
41986;SDS011;28361;50.740;7.084;2022-08-14T08:55:35;5.90;;;3.97;;
41986;SDS011;28361;50.740;7.084;2022-08-14T08:58:04;3.42;;;3.13;;
41986;SDS011;28361;50.740;7.084;2022-08-14T09:00:35;6.03;;;3.75;;
41986;SDS011;28361;50.740;7.084;2022-08-14T09:03:12;4.18;;;3.35;;
41986;SDS011;28361;50.740;7.084;2022-08-14T09:08:27;3.88;;;3.35;;
41986;SDS011;28361;50.740;7.084;2022-08-14T09:11:04;4.75;;;3.85;;
41986;SDS011;28361;50.740;7.084;2022-08-14T09:13:31;3.95;;;3.55;;
41986;SDS011;28361;50.740;7.084;2022-08-14T09:15:57;4.18;;;3.75;;
41986;SDS011;28361;50.740;7.084;2022-08-14T09:18:25;4.88;;;3.20;;
41986;SDS011;28361;50.740;7.084;2022-08-14T09:20:52;4.78;;;3.70;;
41986;SDS011;28361;50.740;7.084;2022-08-14T09:23:19;5.65;;;3.70;;
41986;SDS011;28361;50.740;7.084;2022-08-14T09:25:46;5.18;;;3.50;;
41986;SDS011;28361;50.740;7.084;2022-08-14T09:28:15;3.45;;;3.13;;
41986;SDS011;28361;50.740;7.084;2022-08-14T09:30:43;4.97;;;3.42;;
41986;SDS011;28361;50.740;7.084;2022-08-14T09:36:19;3.78;;;3.15;;
41986;SDS011;28361;50.740;7.084;2022-08-14T09:39:09;7.95;;;3.50;;
41986;SDS011;28361;50.740;7.084;2022-08-14T09:47:11;5.80;;;3.47;;
41986;SDS011;28361;50.740;7.084;2022-08-14T09:49:41;6.88;;;3.60;;
41986;SDS011;28361;50.740;7.084;2022-08-14T09:52:09;3.80;;;3.38;;
41986;SDS011;28361;50.740;7.084;2022-08-14T09:54:42;3.50;;;2.92;;
41986;SDS011;28361;50.740;7.084;2022-08-14T09:57:11;4.53;;;3.42;;
41986;SDS011;28361;50.740;7.084;2022-08-14T09:59:49;3.45;;;3.05;;
41986;SDS011;28361;50.740;7.084;2022-08-14T10:02:19;3.53;;;2.58;;
41986;SDS011;28361;50.740;7.084;2022-08-14T10:05:08;4.43;;;2.80;;
41986;SDS011;28361;50.740;7.084;2022-08-14T10:10:25;4.78;;;2.95;;
41986;SDS011;28361;50.740;7.084;2022-08-14T10:12:55;3.72;;;2.40;;
41986;SDS011;28361;50.740;7.084;2022-08-14T10:15:23;4.53;;;2.83;;
41986;SDS011;28361;50.740;7.084;2022-08-14T10:20:40;3.40;;;2.90;;
41986;SDS011;28361;50.740;7.084;2022-08-14T10:23:12;3.22;;;2.88;;
41986;SDS011;28361;50.740;7.084;2022-08-14T10:25:40;4.15;;;2.60;;
41986;SDS011;28361;50.740;7.084;2022-08-14T10:28:14;5.82;;;3.10;;
41986;SDS011;28361;50.740;7.084;2022-08-14T10:30:44;3.60;;;2.60;;
41986;SDS011;28361;50.740;7.084;2022-08-14T10:33:31;3.17;;;2.85;;
41986;SDS011;28361;50.740;7.084;2022-08-14T10:35:58;5.10;;;2.60;;
41986;SDS011;28361;50.740;7.084;2022-08-14T10:38:28;2.78;;;2.58;;
41986;SDS011;28361;50.740;7.084;2022-08-14T10:41:14;3.38;;;2.60;;
41986;SDS011;28361;50.740;7.084;2022-08-14T10:43:42;2.90;;;2.60;;
41986;SDS011;28361;50.740;7.084;2022-08-14T10:46:16;3.20;;;2.70;;
41986;SDS011;28361;50.740;7.084;2022-08-14T10:48:54;3.42;;;2.75;;
41986;SDS011;28361;50.740;7.084;2022-08-14T10:51:27;2.83;;;2.55;;
41986;SDS011;28361;50.740;7.084;2022-08-14T10:53:55;3.35;;;2.40;;
41986;SDS011;28361;50.740;7.084;2022-08-14T10:56:29;3.58;;;2.55;;
41986;SDS011;28361;50.740;7.084;2022-08-14T10:59:02;2.38;;;2.17;;
41986;SDS011;28361;50.740;7.084;2022-08-14T11:01:32;2.63;;;2.28;;
41986;SDS011;28361;50.740;7.084;2022-08-14T11:04:01;3.17;;;2.70;;
41986;SDS011;28361;50.740;7.084;2022-08-14T11:06:27;4.22;;;2.92;;
41986;SDS011;28361;50.740;7.084;2022-08-14T11:08:54;3.25;;;2.88;;
41986;SDS011;28361;50.740;7.084;2022-08-14T11:11:22;3.22;;;2.80;;
41986;SDS011;28361;50.740;7.084;2022-08-14T11:13:53;3.75;;;3.03;;
41986;SDS011;28361;50.740;7.084;2022-08-14T11:16:21;2.47;;;2.28;;
41986;SDS011;28361;50.740;7.084;2022-08-14T11:18:49;2.40;;;2.20;;
41986;SDS011;28361;50.740;7.084;2022-08-14T11:21:16;2.85;;;2.55;;
41986;SDS011;28361;50.740;7.084;2022-08-14T11:23:45;3.65;;;2.35;;
41986;SDS011;28361;50.740;7.084;2022-08-14T11:26:13;2.72;;;2.38;;
41986;SDS011;28361;50.740;7.084;2022-08-14T11:28:44;4.05;;;2.40;;
41986;SDS011;28361;50.740;7.084;2022-08-14T11:31:13;3.13;;;2.30;;
41986;SDS011;28361;50.740;7.084;2022-08-14T11:33:39;2.50;;;2.30;;
41986;SDS011;28361;50.740;7.084;2022-08-14T11:36:06;2.60;;;2.40;;
41986;SDS011;28361;50.740;7.084;2022-08-14T11:38:38;3.40;;;2.35;;
41986;SDS011;28361;50.740;7.084;2022-08-14T11:41:09;4.60;;;2.22;;
41986;SDS011;28361;50.740;7.084;2022-08-14T11:43:39;3.75;;;2.50;;
41986;SDS011;28361;50.740;7.084;2022-08-14T11:46:12;2.65;;;2.40;;
41986;SDS011;28361;50.740;7.084;2022-08-14T11:48:47;2.35;;;2.15;;
41986;SDS011;28361;50.740;7.084;2022-08-14T11:51:16;3.17;;;2.35;;
41986;SDS011;28361;50.740;7.084;2022-08-14T11:53:59;4.53;;;2.22;;
41986;SDS011;28361;50.740;7.084;2022-08-14T11:56:36;2.75;;;2.17;;
41986;SDS011;28361;50.740;7.084;2022-08-14T11:59:05;2.88;;;2.60;;
41986;SDS011;28361;50.740;7.084;2022-08-14T12:01:33;2.47;;;2.28;;
41986;SDS011;28361;50.740;7.084;2022-08-14T12:04:07;2.63;;;2.35;;
41986;SDS011;28361;50.740;7.084;2022-08-14T12:06:42;2.45;;;2.13;;
41986;SDS011;28361;50.740;7.084;2022-08-14T12:09:32;2.35;;;2.15;;
41986;SDS011;28361;50.740;7.084;2022-08-14T12:12:16;2.80;;;2.00;;
41986;SDS011;28361;50.740;7.084;2022-08-14T12:14:53;2.38;;;1.88;;
41986;SDS011;28361;50.740;7.084;2022-08-14T12:17:30;2.08;;;1.90;;
41986;SDS011;28361;50.740;7.084;2022-08-14T12:20:08;2.13;;;1.88;;
41986;SDS011;28361;50.740;7.084;2022-08-14T12:22:35;2.00;;;1.80;;
41986;SDS011;28361;50.740;7.084;2022-08-14T12:25:04;1.73;;;1.58;;
41986;SDS011;28361;50.740;7.084;2022-08-14T12:30:04;2.30;;;2.10;;
41986;SDS011;28361;50.740;7.084;2022-08-14T12:32:40;4.25;;;1.90;;
41986;SDS011;28361;50.740;7.084;2022-08-14T12:35:09;3.33;;;2.05;;
41986;SDS011;28361;50.740;7.084;2022-08-14T12:37:36;1.80;;;1.70;;
41986;SDS011;28361;50.740;7.084;2022-08-14T12:40:10;1.75;;;1.65;;
41986;SDS011;28361;50.740;7.084;2022-08-14T12:42:36;2.03;;;1.83;;
41986;SDS011;28361;50.740;7.084;2022-08-14T12:45:03;1.98;;;1.80;;
41986;SDS011;28361;50.740;7.084;2022-08-14T12:47:30;2.97;;;2.30;;
41986;SDS011;28361;50.740;7.084;2022-08-14T12:49:56;1.98;;;1.77;;
41986;SDS011;28361;50.740;7.084;2022-08-14T12:52:26;7.13;;;1.90;;
41986;SDS011;28361;50.740;7.084;2022-08-14T12:54:57;2.90;;;2.20;;
41986;SDS011;28361;50.740;7.084;2022-08-14T12:57:46;2.20;;;1.95;;
41986;SDS011;28361;50.740;7.084;2022-08-14T13:00:16;1.90;;;1.75;;
41986;SDS011;28361;50.740;7.084;2022-08-14T13:02:48;2.80;;;2.00;;
41986;SDS011;28361;50.740;7.084;2022-08-14T13:05:16;2.40;;;1.73;;
41986;SDS011;28361;50.740;7.084;2022-08-14T13:07:46;2.85;;;2.10;;
41986;SDS011;28361;50.740;7.084;2022-08-14T13:10:13;1.98;;;1.67;;
41986;SDS011;28361;50.740;7.084;2022-08-14T13:12:40;2.38;;;1.67;;
41986;SDS011;28361;50.740;7.084;2022-08-14T13:15:08;1.90;;;1.70;;
41986;SDS011;28361;50.740;7.084;2022-08-14T13:17:44;2.20;;;2.00;;
41986;SDS011;28361;50.740;7.084;2022-08-14T13:20:12;3.25;;;1.88;;
41986;SDS011;28361;50.740;7.084;2022-08-14T13:22:40;1.85;;;1.70;;
41986;SDS011;28361;50.740;7.084;2022-08-14T13:25:16;2.15;;;1.63;;
41986;SDS011;28361;50.740;7.084;2022-08-14T13:27:45;2.28;;;1.85;;
41986;SDS011;28361;50.740;7.084;2022-08-14T13:30:13;2.17;;;1.65;;
41986;SDS011;28361;50.740;7.084;2022-08-14T13:32:40;2.67;;;2.15;;
41986;SDS011;28361;50.740;7.084;2022-08-14T13:35:09;1.92;;;1.73;;
41986;SDS011;28361;50.740;7.084;2022-08-14T13:37:36;2.30;;;2.00;;
41986;SDS011;28361;50.740;7.084;2022-08-14T13:40:02;2.00;;;1.80;;
41986;SDS011;28361;50.740;7.084;2022-08-14T13:42:30;2.30;;;1.58;;
41986;SDS011;28361;50.740;7.084;2022-08-14T13:44:56;1.52;;;1.40;;
41986;SDS011;28361;50.740;7.084;2022-08-14T13:47:25;1.70;;;1.60;;
41986;SDS011;28361;50.740;7.084;2022-08-14T13:49:54;3.90;;;1.77;;
41986;SDS011;28361;50.740;7.084;2022-08-14T13:52:32;3.35;;;1.65;;
41986;SDS011;28361;50.740;7.084;2022-08-14T13:55:00;2.63;;;1.70;;
41986;SDS011;28361;50.740;7.084;2022-08-14T13:57:30;2.00;;;1.80;;
41986;SDS011;28361;50.740;7.084;2022-08-14T14:00:01;1.95;;;1.75;;
41986;SDS011;28361;50.740;7.084;2022-08-14T14:02:37;2.25;;;1.80;;
41986;SDS011;28361;50.740;7.084;2022-08-14T14:05:04;1.65;;;1.55;;
41986;SDS011;28361;50.740;7.084;2022-08-14T14:07:32;2.20;;;1.95;;
41986;SDS011;28361;50.740;7.084;2022-08-14T14:10:00;2.10;;;1.90;;
41986;SDS011;28361;50.740;7.084;2022-08-14T14:12:27;2.50;;;2.20;;
41986;SDS011;28361;50.740;7.084;2022-08-14T14:14:54;2.55;;;2.10;;
41986;SDS011;28361;50.740;7.084;2022-08-14T14:17:20;2.50;;;1.88;;
41986;SDS011;28361;50.740;7.084;2022-08-14T14:19:49;1.90;;;1.70;;
41986;SDS011;28361;50.740;7.084;2022-08-14T14:22:16;1.90;;;1.80;;
41986;SDS011;28361;50.740;7.084;2022-08-14T14:24:45;13.45;;;2.40;;
41986;SDS011;28361;50.740;7.084;2022-08-14T14:27:11;2.00;;;1.70;;
41986;SDS011;28361;50.740;7.084;2022-08-14T14:29:44;3.22;;;2.08;;
41986;SDS011;28361;50.740;7.084;2022-08-14T14:32:12;3.72;;;1.83;;
41986;SDS011;28361;50.740;7.084;2022-08-14T14:34:41;2.40;;;1.48;;
41986;SDS011;28361;50.740;7.084;2022-08-14T14:37:11;2.80;;;1.77;;
41986;SDS011;28361;50.740;7.084;2022-08-14T14:39:39;1.70;;;1.60;;
41986;SDS011;28361;50.740;7.084;2022-08-14T14:42:06;1.90;;;1.60;;
41986;SDS011;28361;50.740;7.084;2022-08-14T14:44:35;2.17;;;1.98;;
41986;SDS011;28361;50.740;7.084;2022-08-14T14:47:09;2.65;;;1.80;;
41986;SDS011;28361;50.740;7.084;2022-08-14T14:49:36;2.17;;;1.70;;
41986;SDS011;28361;50.740;7.084;2022-08-14T14:52:04;2.05;;;1.85;;
41986;SDS011;28361;50.740;7.084;2022-08-14T14:54:33;1.48;;;1.38;;
41986;SDS011;28361;50.740;7.084;2022-08-14T14:57:00;1.90;;;1.80;;
41986;SDS011;28361;50.740;7.084;2022-08-14T14:59:27;1.70;;;1.60;;
41986;SDS011;28361;50.740;7.084;2022-08-14T15:01:59;2.10;;;1.90;;
41986;SDS011;28361;50.740;7.084;2022-08-14T15:04:35;1.73;;;1.63;;
41986;SDS011;28361;50.740;7.084;2022-08-14T15:07:03;3.28;;;1.58;;
41986;SDS011;28361;50.740;7.084;2022-08-14T15:09:30;4.55;;;1.95;;
41986;SDS011;28361;50.740;7.084;2022-08-14T15:11:57;2.33;;;1.80;;
41986;SDS011;28361;50.740;7.084;2022-08-14T15:14:23;3.30;;;1.70;;
41986;SDS011;28361;50.740;7.084;2022-08-14T15:16:49;1.63;;;1.52;;
41986;SDS011;28361;50.740;7.084;2022-08-14T15:19:15;2.30;;;2.10;;
41986;SDS011;28361;50.740;7.084;2022-08-14T15:21:41;3.80;;;2.20;;